Time;durP1;ratioP1;P1;durP2;ratioP2;P2;SDS_P1;SDS_P2;PMS_P1;PMS_P2;Temp;Humidity;BMP_temperature;BMP_pressure;BME280_temperature;BME280_humidity;BME280_pressure;Samples;Min_cycle;Max_cycle;Signal;HPM_P1;HPM_P2
2022/07/19 00:01:50;;;;;;;;;;;;;;;22.18;100.00;148296.81;4996718;28;19913;-79
2022/07/19 00:04:17;;;;;;;;;;;;;;;22.15;100.00;148287.88;4995793;28;20417;-79
2022/07/19 00:06:43;;;;;;;;;;;;;;;21.99;100.00;148248.13;4996927;28;19920;-78
2022/07/19 00:09:08;;;;;;;;;;;;;;;21.98;100.00;148245.53;4996104;28;19917;-79
2022/07/19 00:11:33;;;;;;;;;;;;;;;21.94;100.00;148235.25;4996393;28;19913;-78
2022/07/19 00:13:59;;;;;;;;;;;;;;;22.11;100.00;148277.59;4996270;28;19913;-78
2022/07/19 00:16:25;;;;;;;;;;;;;;;22.27;100.00;148317.38;4996885;28;19917;-78
2022/07/19 00:18:50;;;;;;;;;;;;;;;22.35;100.00;148337.94;5013975;28;20000;-80
2022/07/19 00:21:15;;;;;;;;;;;;;;;22.41;100.00;148353.34;5013494;28;20067;-78
2022/07/19 00:24:02;;;;;;;;;;;;;;;22.49;100.00;148373.84;4996348;28;19956;-78
2022/07/19 00:26:28;;;;;;;;;;;;;;;22.54;100.00;148385.41;5013062;28;19917;-79
2022/07/19 00:28:54;;;;;;;;;;;;;;;22.55;100.00;148389.25;4996415;28;19952;-78
2022/07/19 00:31:20;;;;;;;;;;;;;;;22.19;100.00;148299.41;4996534;28;19921;-79
2022/07/19 00:33:45;;;;;;;;;;;;;;;21.85;100.00;148214.75;4996026;28;19914;-79
2022/07/19 00:36:11;;;;;;;;;;;;;;;21.80;100.00;148200.69;4995801;28;19913;-79
2022/07/19 00:38:36;;;;;;;;;;;;;;;21.94;100.00;148235.25;4995872;28;19964;-79
2022/07/19 00:41:02;;;;;;;;;;;;;;;22.08;100.00;148271.19;4995878;28;19920;-78
2022/07/19 00:43:27;;;;;;;;;;;;;;;22.13;100.00;148284.00;4996557;28;19920;-80
2022/07/19 00:45:52;;;;;;;;;;;;;;;22.10;100.00;148275.06;4996588;28;19975;-79
2022/07/19 00:48:18;;;;;;;;;;;;;;;21.93;100.00;148232.72;4996472;28;20013;-80
2022/07/19 00:50:43;;;;;;;;;;;;;;;21.87;100.00;148218.59;4996239;28;20301;-79
2022/07/19 00:53:09;;;;;;;;;;;;;;;21.83;100.00;148208.31;4995674;28;20239;-79
2022/07/19 00:55:40;;;;;;;;;;;;;;;21.67;100.00;148168.59;4996130;28;19959;-79
2022/07/19 00:58:05;;;;;;;;;;;;;;;21.56;100.00;148141.66;4995881;28;20036;-80
2022/07/19 01:00:31;;;;;;;;;;;;;;;21.43;100.00;148108.31;4996053;28;20626;-79
2022/07/19 01:02:59;;;;;;;;;;;;;;;21.52;100.00;148132.69;5012933;28;20000;-79
2022/07/19 01:05:24;;;;;;;;;;;;;;;21.68;100.00;148172.44;4996090;28;19913;-79
2022/07/19 01:07:50;;;;;;;;;;;;;;;21.77;100.00;148194.25;4996328;28;19920;-78
2022/07/19 01:10:15;;;;;;;;;;;;;;;21.85;100.00;148214.75;5013311;28;20254;-79
2022/07/19 01:12:47;;;;;;;;;;;;;;;21.90;100.00;148225.03;4996146;28;19959;-79
2022/07/19 01:15:19;;;;;;;;;;;;;;;21.92;100.00;148231.41;4995947;28;20280;-79
2022/07/19 01:17:45;;;;;;;;;;;;;;;21.96;100.00;148240.41;4995164;28;19921;-80
2022/07/19 01:20:10;;;;;;;;;;;;;;;21.91;100.00;148227.56;4999363;28;20414;-80
2022/07/19 01:22:43;;;;;;;;;;;;;;;21.89;100.00;148223.72;4999687;28;20008;-78
2022/07/19 01:25:09;;;;;;;;;;;;;;;21.85;100.00;148213.50;4999398;28;19968;-80
2022/07/19 01:27:38;;;;;;;;;;;;;;;21.66;100.00;148167.31;4999446;28;19914;-78
2022/07/19 01:30:09;;;;;;;;;;;;;;;21.47;100.00;148119.84;4999493;28;19952;-79
2022/07/19 01:32:34;;;;;;;;;;;;;;;21.53;100.00;148133.97;4999400;28;20276;-79
2022/07/19 01:34:59;;;;;;;;;;;;;;;21.62;100.00;148157.03;4998965;28;19918;-79
2022/07/19 01:37:25;;;;;;;;;;;;;;;21.67;100.00;148168.59;5016778;28;19936;-79
2022/07/19 01:39:50;;;;;;;;;;;;;;;21.66;100.00;148167.31;4999584;28;19913;-79
2022/07/19 01:42:15;;;;;;;;;;;;;;;21.67;100.00;148169.91;5016798;28;19913;-77
2022/07/19 01:44:42;;;;;;;;;;;;;;;21.66;100.00;148166.06;4999299;28;19913;-79
2022/07/19 01:47:08;;;;;;;;;;;;;;;21.54;100.00;148135.28;4998129;28;19925;-78
2022/07/19 01:49:33;;;;;;;;;;;;;;;21.54;100.00;148136.56;4997213;28;20061;-77
2022/07/19 01:51:58;;;;;;;;;;;;;;;21.41;100.00;148104.47;4998740;28;19913;-77
2022/07/19 01:54:30;;;;;;;;;;;;;;;21.41;100.00;148103.16;5016310;28;20004;-78
2022/07/19 01:56:55;;;;;;;;;;;;;;;21.43;100.00;148109.56;4998943;28;19918;-76
2022/07/19 01:59:21;;;;;;;;;;;;;;;21.40;100.00;148100.63;4999281;28;19913;-78
2022/07/19 02:01:46;;;;;;;;;;;;;;;21.40;100.00;148101.88;4998641;28;19977;-77
2022/07/19 02:04:11;;;;;;;;;;;;;;;21.42;100.00;148107.00;4998229;28;19914;-77
2022/07/19 02:06:36;;;;;;;;;;;;;;;21.46;100.00;148116.00;4999086;28;19917;-78
2022/07/19 02:09:02;;;;;;;;;;;;;;;21.41;100.00;148104.47;4998580;28;19909;-77
2022/07/19 02:11:37;;;;;;;;;;;;;;;21.38;100.00;148095.47;5016229;28;20041;-77
2022/07/19 02:14:07;;;;;;;;;;;;;;;21.39;100.00;148099.31;4998591;28;20404;-78
2022/07/19 02:16:34;;;;;;;;;;;;;;;21.42;100.00;148105.72;4998391;28;20017;-78
2022/07/19 02:18:59;;;;;;;;;;;;;;;21.35;100.00;148089.06;4998020;28;19924;-77
2022/07/19 02:21:24;;;;;;;;;;;;;;;21.27;100.00;148069.84;4998423;28;19913;-77
2022/07/19 02:23:52;;;;;;;;;;;;;;;21.28;100.00;148072.38;4998496;28;19914;-77
2022/07/19 02:26:17;;;;;;;;;;;;;;;21.30;100.00;148077.53;4997979;28;20378;-78
2022/07/19 02:28:43;;;;;;;;;;;;;;;21.28;100.00;148072.38;4998578;28;19920;-79
2022/07/19 02:31:08;;;;;;;;;;;;;;;21.29;100.00;148074.97;4998214;28;19943;-78
2022/07/19 02:33:37;;;;;;;;;;;;;;;21.34;100.00;148087.75;4998010;28;19959;-78
2022/07/19 02:36:03;;;;;;;;;;;;;;;21.26;100.00;148066.00;4998211;28;20058;-78
2022/07/19 02:38:29;;;;;;;;;;;;;;;21.29;100.00;148073.69;4998307;28;19913;-78
2022/07/19 02:40:54;;;;;;;;;;;;;;;21.23;100.00;148058.31;5015400;28;20057;-77
2022/07/19 02:43:19;;;;;;;;;;;;;;;21.19;100.00;148048.03;5015514;28;19913;-78
2022/07/19 02:45:45;;;;;;;;;;;;;;;21.25;100.00;148063.41;5015006;28;20428;-78
2022/07/19 02:48:10;;;;;;;;;;;;;;;21.24;100.00;148060.84;4997855;28;20258;-78
2022/07/19 02:50:35;;;;;;;;;;;;;;;21.19;100.00;148048.03;4998496;28;19913;-79
2022/07/19 02:53:01;;;;;;;;;;;;;;;21.21;100.00;148053.16;4997542;28;20424;-79
2022/07/19 02:55:26;;;;;;;;;;;;;;;21.18;100.00;148046.78;4997595;28;19917;-78
2022/07/19 02:57:51;;;;;;;;;;;;;;;21.21;100.00;148053.16;4997874;28;19913;-80
2022/07/19 03:00:17;;;;;;;;;;;;;;;21.14;100.00;148037.78;4997912;28;19913;-78
2022/07/19 03:02:44;;;;;;;;;;;;;;;21.15;100.00;148040.34;5015343;28;19914;-77
2022/07/19 03:05:09;;;;;;;;;;;;;;;21.11;100.00;148030.06;4997650;28;20354;-77
2022/07/19 03:07:34;;;;;;;;;;;;;;;21.04;100.00;148012.16;4997776;28;19921;-78
2022/07/19 03:10:00;;;;;;;;;;;;;;;21.00;100.00;148001.91;5014832;28;19914;-78
2022/07/19 03:12:25;;;;;;;;;;;;;;;21.01;100.00;148003.22;4997828;28;19913;-79
2022/07/19 03:14:50;;;;;;;;;;;;;;;21.00;100.00;148001.91;4997583;28;19913;-80
2022/07/19 03:17:15;;;;;;;;;;;;;;;21.01;100.00;148004.47;5014587;28;19925;-79
2022/07/19 03:19:41;;;;;;;;;;;;;;;20.95;100.00;147989.09;4997789;28;19920;-79
2022/07/19 03:22:06;;;;;;;;;;;;;;;20.92;100.00;147981.41;4996884;28;19940;-80
2022/07/19 03:24:39;;;;;;;;;;;;;;;20.91;100.00;147978.81;5014891;28;19913;-78
2022/07/19 03:27:04;;;;;;;;;;;;;;;20.89;100.00;147973.72;4997514;28;19913;-80
2022/07/19 03:29:30;;;;;;;;;;;;;;;20.83;100.00;147959.59;4997092;28;19913;-79
2022/07/19 03:31:55;;;;;;;;;;;;;;;20.83;100.00;147958.34;4996735;28;19941;-79
2022/07/19 03:34:22;;;;;;;;;;;;;;;20.81;100.00;147954.50;4997045;28;19920;-79
2022/07/19 03:36:48;;;;;;;;;;;;;;;;;;4997263;28;19917;-78
2022/07/19 03:39:13;;;;;;;;;;;;;;;20.74;100.00;147936.53;5012484;28;19943;-79
2022/07/19 03:41:38;;;;;;;;;;;;;;;20.71;100.00;147930.16;5014594;28;19952;-78
2022/07/19 03:44:04;;;;;;;;;;;;;;;20.69;100.00;147923.72;4996571;28;19920;-78
2022/07/19 03:46:29;;;;;;;;;;;;;;;20.72;100.00;147932.69;4997238;28;20316;-79
2022/07/19 03:48:55;;;;;;;;;;;;;;;20.71;100.00;147930.16;4996513;28;19913;-78
2022/07/19 03:51:20;;;;;;;;;;;;;;;20.65;100.00;147914.78;4996764;28;19948;-81
2022/07/19 03:53:48;;;;;;;;;;;;;;;20.59;100.00;147899.34;5014208;28;19918;-80
2022/07/19 03:56:13;;;;;;;;;;;;;;;20.53;100.00;141657.50;4996591;28;19917;-77
2022/07/19 03:58:39;;;;;;;;;;;;;;;20.50;100.00;115798.34;5013954;28;19913;-79
2022/07/19 04:01:04;;;;;;;;;;;;;;;20.55;100.00;123375.78;4996550;28;19960;-79
2022/07/19 04:03:39;;;;;;;;;;;;;;;20.59;100.00;143027.34;5013977;28;19967;-78
2022/07/19 04:06:09;;;;;;;;;;;;;;;20.66;100.00;147917.31;5013858;28;20366;-80
2022/07/19 04:08:34;;;;;;;;;;;;;;;20.60;100.00;129932.66;4996934;28;19913;-80
2022/07/19 04:10:59;;;;;;;;;;;;;;;20.66;100.00;107588.09;4996175;28;19916;-80
2022/07/19 04:13:26;;;;;;;;;;;;;;;20.65;100.00;91839.22;4996229;28;19914;-79
2022/07/19 04:15:51;;;;;;;;;;;;;;;20.76;100.00;99382.50;4996751;28;19913;-79
2022/07/19 04:18:16;;;;;;;;;;;;;;;20.90;100.00;132414.25;5013615;28;19952;-79
2022/07/19 04:20:41;;;;;;;;;;;;;;;21.20;100.00;148050.63;4995847;28;19921;-79
2022/07/19 04:23:07;;;;;;;;;;;;;;;21.47;100.00;148119.84;4993596;28;19921;-78
2022/07/19 04:25:32;;;;;;;;;;;;;;;21.62;100.00;148157.03;4995622;28;19913;-78
2022/07/19 04:27:57;;;;;;;;;;;;;;;22.07;100.00;148267.34;4995606;28;20021;-79
2022/07/19 04:30:23;;;;;;;;;;;;;;;22.50;100.00;148375.16;4996158;28;19995;-79
2022/07/19 04:32:54;;;;;;;;;;;;;;;23.01;100.00;148503.47;5012728;28;19914;-79
2022/07/19 04:35:19;;;;;;;;;;;;;;;23.51;100.00;148626.69;4995844;28;20239;-79
2022/07/19 04:37:44;;;;;;;;;;;;;;;23.80;100.00;148701.19;4995939;28;19914;-80
2022/07/19 04:40:09;;;;;;;;;;;;;;;24.15;100.00;148787.28;4995069;28;19914;-80
2022/07/19 04:42:43;;;;;;;;;;;;;;;24.43;100.00;148856.66;5012864;28;20387;-78
2022/07/19 04:45:08;;;;;;;;;;;;;;;24.85;100.00;148962.03;5012765;28;19913;-77
2022/07/19 04:47:34;;;;;;;;;;;;;;;24.77;100.00;148942.75;4995199;28;19960;-78
2022/07/19 04:49:59;;;;;;;;;;;;;;;25.24;100.00;149060.94;4996917;28;19944;-78
2022/07/19 04:52:24;;;;;;;;;;;;;;;25.39;100.00;149097.03;4999729;28;19913;-78
2022/07/19 04:54:49;;;;;;;;;;;;;;;25.50;100.00;149124.03;5016485;28;19913;-79
2022/07/19 04:57:15;;;;;;;;;;;;;;;25.58;100.00;149145.84;4999195;28;20047;-78
2022/07/19 04:59:40;;;;;;;;;;;;;;;26.33;100.00;149333.66;4999199;28;19913;-78
2022/07/19 05:02:05;;;;;;;;;;;;;;;26.50;100.00;149376.03;5016522;28;19964;-80
2022/07/19 05:04:33;;;;;;;;;;;;;;;26.64;100.00;149410.78;5016645;28;19913;-78
2022/07/19 05:06:58;;;;;;;;;;;;;;;25.66;100.00;149163.84;4998604;28;19909;-80
2022/07/19 05:09:24;;;;;;;;;;;;;;;25.43;100.00;149108.59;4999059;28;19920;-78
2022/07/19 05:11:50;;;;;;;;;;;;;;;26.19;100.00;149296.34;4997748;28;19913;-80
2022/07/19 05:14:15;;;;;;;;;;;;;;;25.78;100.00;149195.97;4997957;28;19913;-80
2022/07/19 05:16:40;;;;;;;;;;;;;;;25.39;100.00;149098.28;4999372;28;19917;-80
2022/07/19 05:19:06;;;;;;;;;;;;;;;25.19;100.00;149046.84;4999464;28;19999;-80
2022/07/19 05:21:31;;;;;;;;;;;;;;;24.81;100.00;148951.72;4999336;28;19920;-80
2022/07/19 05:23:57;;;;;;;;;;;;;;;25.27;100.00;149067.41;5016553;28;20346;-81
2022/07/19 05:26:22;;;;;;;;;;;;;;;24.90;100.00;148976.13;5013716;28;19917;-80
2022/07/19 05:28:48;;;;;;;;;;;;;;;24.48;100.00;148870.75;4998899;28;20445;-80
2022/07/19 05:31:13;;;;;;;;;;;;;;;24.25;100.00;148812.94;4999139;28;20020;-79
2022/07/19 05:33:42;;;;;;;;;;;;;;;24.44;100.00;148859.19;4982791;28;20231;-80
2022/07/19 05:36:10;;;;;;;;;;;;;;;24.43;100.00;148856.66;5015855;28;20381;-81
2022/07/19 05:38:38;;;;;;;;;;;;;;;24.25;100.00;148812.94;4998368;28;19917;-81
2022/07/19 05:41:03;;;;;;;;;;;;;;;24.21;100.00;148802.69;4997342;28;19939;-80
2022/07/19 05:43:29;;;;;;;;;;;;;;;24.12;100.00;148780.84;4997783;28;19917;-80
2022/07/19 05:45:54;;;;;;;;;;;;;;;24.18;100.00;148794.97;4998087;28;19913;-80
2022/07/19 05:48:19;;;;;;;;;;;;;;;24.21;100.00;148802.69;4998154;28;20509;-81
2022/07/19 05:50:44;;;;;;;;;;;;;;;24.02;100.00;148756.44;4997482;28;19913;-81
2022/07/19 05:53:10;;;;;;;;;;;;;;;24.28;100.00;148819.38;4997571;28;20389;-80
2022/07/19 05:55:35;;;;;;;;;;;;;;;24.38;100.00;148846.34;5014443;28;19917;-80
2022/07/19 05:58:00;;;;;;;;;;;;;;;24.26;100.00;148814.25;4996447;28;19920;-79
2022/07/19 06:00:26;;;;;;;;;;;;;;;24.16;100.00;148789.81;4997959;28;19917;-79
2022/07/19 06:02:51;;;;;;;;;;;;;;;24.34;100.00;148836.06;4996428;28;20023;-79
2022/07/19 06:05:16;;;;;;;;;;;;;;;24.39;100.00;148847.63;4996946;28;19917;-79
2022/07/19 06:07:41;;;;;;;;;;;;;;;24.77;100.00;148942.75;4997364;28;20000;-80
2022/07/19 06:10:07;;;;;;;;;;;;;;;24.75;100.00;148936.31;5014400;28;19949;-80
2022/07/19 06:12:33;;;;;;;;;;;;;;;25.05;100.00;149012.16;4996149;28;20417;-79
2022/07/19 06:14:58;;;;;;;;;;;;;;;25.21;100.00;149053.25;4997651;28;19976;-79
2022/07/19 06:17:24;;;;;;;;;;;;;;;25.20;100.00;149050.69;4997332;28;19947;-79
2022/07/19 06:19:49;;;;;;;;;;;;;;;25.06;100.00;149016.00;4997233;28;19918;-80
2022/07/19 06:22:14;;;;;;;;;;;;;;;25.21;100.00;149051.97;4997227;28;19914;-80
2022/07/19 06:24:40;;;;;;;;;;;;;;;25.11;100.00;149026.25;4997025;28;19971;-79
2022/07/19 06:27:06;;;;;;;;;;;;;;;25.37;100.00;149093.16;4996300;28;19913;-80
2022/07/19 06:29:31;;;;;;;;;;;;;;;25.42;100.00;149104.75;4997196;28;19920;-80
2022/07/19 06:32:05;;;;;;;;;;;;;;;25.27;100.00;149067.41;4996046;28;19925;-80
2022/07/19 06:34:32;;;;;;;;;;;;;;;25.37;100.00;149093.16;4997911;28;20052;-80
2022/07/19 06:36:57;;;;;;;;;;;;;;;25.32;100.00;149080.28;4997779;28;19917;-81
2022/07/19 06:39:22;;;;;;;;;;;;;;;25.35;100.00;149086.72;5014685;28;19920;-79
2022/07/19 06:41:48;;;;;;;;;;;;;;;25.19;100.00;149046.84;4997521;28;20012;-80
2022/07/19 06:44:21;;;;;;;;;;;;;;;25.23;100.00;149057.09;4997815;28;20439;-80
2022/07/19 06:46:47;;;;;;;;;;;;;;;25.36;100.00;149089.31;5015199;28;19918;-82
2022/07/19 06:49:12;;;;;;;;;;;;;;;25.59;100.00;149147.13;4998105;28;20191;-81
2022/07/19 06:51:37;;;;;;;;;;;;;;;26.27;100.00;149316.88;4997792;28;20412;-80
2022/07/19 06:54:11;;;;;;;;;;;;;;;27.08;100.00;149520.22;4997434;28;19920;-80
2022/07/19 06:56:36;;;;;;;;;;;;;;;27.24;100.00;149560.09;4996810;28;19913;-78
2022/07/19 06:59:01;;;;;;;;;;;;;;;26.90;100.00;149473.91;4995102;28;19967;-76
2022/07/19 07:01:26;;;;;;;;;;;;;;;26.96;100.00;149489.34;4996979;28;19924;-78
2022/07/19 07:03:56;;;;;;;;;;;;;;;26.64;100.00;149409.50;4997341;28;19913;-78
2022/07/19 07:06:21;;;;;;;;;;;;;;;26.25;100.00;149311.75;4997111;28;20289;-79
2022/07/19 07:08:46;;;;;;;;;;;;;;;26.50;100.00;149374.78;4996835;28;19917;-78
2022/07/19 07:11:12;;;;;;;;;;;;;;;26.66;100.00;149416.00;4996686;28;20365;-80
2022/07/19 07:13:38;;;;;;;;;;;;;;;26.90;100.00;149475.16;4997295;28;19924;-80
2022/07/19 07:16:03;;;;;;;;;;;;;;;27.36;100.00;149591.03;4996834;28;19917;-80
2022/07/19 07:18:29;;;;;;;;;;;;;;;28.13;100.00;149782.84;4996958;28;20315;-79
2022/07/19 07:20:54;;;;;;;;;;;;;;;29.23;100.00;150058.56;4996635;28;19957;-81
2022/07/19 07:23:22;;;;;;;;;;;;;;;29.76;100.00;150191.28;4997099;28;20401;-80
2022/07/19 07:25:47;;;;;;;;;;;;;;;29.78;100.00;150195.16;4995348;28;19913;-81
2022/07/19 07:28:12;;;;;;;;;;;;;;;30.04;100.00;150262.22;4996090;28;20348;-81
2022/07/19 07:30:37;;;;;;;;;;;;;;;30.42;100.00;150357.69;5014280;28;19913;-81
2022/07/19 07:33:07;;;;;;;;;;;;;;;30.75;100.00;150438.91;4996229;28;19918;-80
2022/07/19 07:35:32;;;;;;;;;;;;;;;31.20;100.00;150551.13;4996342;28;19955;-81
2022/07/19 07:37:57;;;;;;;;;;;;;;;31.34;100.00;150587.28;4995045;28;19914;-77
2022/07/19 07:40:23;;;;;;;;;;;;;;;31.57;100.00;150645.38;4995417;28;20000;-80
2022/07/19 07:42:50;;;;;;;;;;;;;;;31.01;100.00;150503.41;4995659;28;20416;-78
2022/07/19 07:45:15;;;;;;;;;;;;;;;31.37;100.00;150595.00;4995931;28;19943;-79
2022/07/19 07:47:41;;;;;;;;;;;;;;;31.68;100.00;150672.41;4995640;28;19961;-77
2022/07/19 07:50:07;;;;;;;;;;;;;;;31.91;100.00;150729.22;4995370;28;19968;-78
2022/07/19 07:52:32;;;;;;;;;;;;;;;31.89;100.00;150724.06;5012496;28;19959;-79
2022/07/19 07:55:01;;;;;;;;;;;;;;;32.26;100.00;150817.03;4994717;28;19959;-79
2022/07/19 07:57:26;;;;;;;;;;;;;;;32.12;100.00;150782.19;4993580;28;19913;-80
2022/07/19 07:59:51;;;;;;;;;;;;;;;32.85;100.00;150965.53;4995460;28;19919;-78
2022/07/19 08:02:17;;;;;;;;;;;;;;;32.76;100.00;150943.56;4994859;28;20362;-79
2022/07/19 08:04:43;;;;;;;;;;;;;;;32.99;100.00;151000.38;4979001;28;19917;-78
2022/07/19 08:07:08;;;;;;;;;;;;;;;32.43;100.00;150860.91;4995877;28;19920;-80
2022/07/19 08:09:33;;;;;;;;;;;;;;;33.10;100.00;151028.78;4995668;28;19913;-78
2022/07/19 08:11:59;;;;;;;;;;;;;;;32.45;100.00;150864.78;4995085;28;19920;-80
2022/07/19 08:14:24;;;;;;;;;;;;;;;32.30;100.00;150828.66;4995667;28;19924;-79
2022/07/19 08:16:49;;;;;;;;;;;;;;;32.43;100.00;150860.91;5012940;28;19924;-79
2022/07/19 08:19:15;;;;;;;;;;;;;;;33.01;100.00;151005.53;4994662;28;19920;-79
2022/07/19 08:21:40;;;;;;;;;;;;;;;32.96;100.00;150992.63;5012856;28;19921;-79
2022/07/19 08:24:06;;;;;;;;;;;;;;;32.86;100.00;150969.41;4994306;28;19921;-79
2022/07/19 08:26:31;;;;;;;;;;;;;;;32.79;100.00;150950.03;4995609;28;19971;-81
2022/07/19 08:28:57;;;;;;;;;;;;;;;32.71;100.00;150930.66;4995705;28;19925;-80
2022/07/19 08:31:22;;;;;;;;;;;;;;;32.24;100.00;150811.84;4995651;28;20023;-79
2022/07/19 08:33:51;;;;;;;;;;;;;;;32.69;100.00;150925.47;4995052;28;20000;-79
2022/07/19 08:36:17;;;;;;;;;;;;;;;32.39;100.00;150851.84;5011720;28;19917;-81
2022/07/19 08:38:42;;;;;;;;;;;;;;;32.33;100.00;150836.41;5012393;28;19920;-82
2022/07/19 08:41:08;;;;;;;;;;;;;;;32.89;100.00;150977.16;4995602;28;20353;-82
2022/07/19 08:43:35;;;;;;;;;;;;;;;32.74;100.00;150938.41;4995987;28;19909;-82
2022/07/19 08:46:01;;;;;;;;;;;;;;;32.93;100.00;150986.16;4995215;28;19913;-79
2022/07/19 08:48:30;;;;;;;;;;;;;;;33.21;100.00;151057.22;4995890;28;19968;-82
2022/07/19 08:50:55;;;;;;;;;;;;;;;32.96;100.00;150992.63;4995334;28;19914;-79
2022/07/19 08:53:23;;;;;;;;;;;;;;;33.24;100.00;151063.69;4995786;28;19913;-81
2022/07/19 08:55:49;;;;;;;;;;;;;;;32.43;100.00;150860.91;4996462;28;19948;-81
2022/07/19 08:58:14;;;;;;;;;;;;;;;32.86;100.00;150968.06;4996441;28;19917;-80
2022/07/19 09:00:40;;;;;;;;;;;;;;;32.98;100.00;150999.06;4995804;28;19967;-79
2022/07/19 09:03:06;;;;;;;;;;;;;;;33.05;100.00;151015.88;4995206;28;19918;-80
2022/07/19 09:05:33;;;;;;;;;;;;;;;32.99;100.00;151001.66;4995544;28;20007;-78
2022/07/19 09:08:08;;;;;;;;;;;;;;;33.72;100.00;151183.84;4994801;28;19909;-80
2022/07/19 09:10:35;;;;;;;;;;;;;;;33.81;100.00;151207.09;4995689;28;19914;-80
2022/07/19 09:13:08;;;;;;;;;;;;;;;33.82;100.00;151209.66;4995269;28;19909;-81
2022/07/19 09:15:37;;;;;;;;;;;;;;;34.00;100.00;151254.91;5013240;28;19936;-79
2022/07/19 09:18:14;;;;;;;;;;;;;;;33.96;100.00;151245.81;5013108;28;19921;-80
2022/07/19 09:20:39;;;;;;;;;;;;;;;33.73;100.00;151186.41;4994901;28;19920;-80
2022/07/19 09:23:08;;;;;;;;;;;;;;;33.93;100.00;151238.06;4994830;28;20278;-80
2022/07/19 09:25:41;;;;;;;;;;;;;;;34.07;100.00;151272.94;5012085;28;19913;-79
2022/07/19 09:28:07;;;;;;;;;;;;;;;33.89;100.00;151227.75;4994794;28;19914;-80
2022/07/19 09:30:36;;;;;;;;;;;;;;;34.25;100.00;151318.22;5013307;28;19960;-80
2022/07/19 09:33:20;;;;;;;;;;;;;;;34.49;100.00;151377.66;4995629;28;19941;-79
2022/07/19 09:35:46;;;;;;;;;;;;;;;34.29;100.00;151327.25;4977971;28;19971;-80
2022/07/19 09:38:16;;;;;;;;;;;;;;;34.09;100.00;151276.81;4997436;28;19925;-79
2022/07/19 09:40:41;;;;;;;;;;;;;;;33.93;100.00;151238.06;4998902;28;19914;-79
2022/07/19 09:43:08;;;;;;;;;;;;;;;33.90;100.00;151230.31;4998688;28;20392;-80
2022/07/19 09:45:34;;;;;;;;;;;;;;;34.04;100.00;151265.19;4999302;28;19910;-81
2022/07/19 09:48:00;;;;;;;;;;;;;;;34.64;100.00;151416.44;4998976;28;19968;-79
2022/07/19 09:50:26;;;;;;;;;;;;;;;34.77;100.00;151448.78;4998467;28;19914;-77
2022/07/19 09:53:06;;;;;;;;;;;;;;;34.33;100.00;151338.91;5016030;28;19920;-78
2022/07/19 09:55:32;;;;;;;;;;;;;;;34.57;100.00;151397.03;4998426;28;19932;-79
2022/07/19 09:57:58;;;;;;;;;;;;;;;34.63;100.00;151413.81;4998026;28;19917;-78
2022/07/19 10:00:24;;;;;;;;;;;;;;;34.08;100.00;151275.53;4998978;28;20357;-79
2022/07/19 10:02:58;;;;;;;;;;;;;;;34.16;100.00;151294.94;4998451;28;20335;-78
2022/07/19 10:05:24;;;;;;;;;;;;;;;34.02;100.00;151258.78;4998658;28;20306;-79
2022/07/19 10:07:49;;;;;;;;;;;;;;;33.74;100.00;151189.00;4998756;28;20052;-77
2022/07/19 10:10:16;;;;;;;;;;;;;;;33.66;100.00;151168.31;4998606;28;19917;-78
2022/07/19 10:12:45;;;;;;;;;;;;;;;33.54;100.00;151138.59;5015952;28;20432;-79
2022/07/19 10:15:12;;;;;;;;;;;;;;;33.95;100.00;151241.94;4998137;28;20370;-79
2022/07/19 10:17:56;;;;;;;;;;;;;;;33.58;100.00;151150.22;4998324;28;19921;-79
2022/07/19 10:20:23;;;;;;;;;;;;;;;33.60;100.00;151155.34;5014879;28;19920;-78
2022/07/19 10:22:50;;;;;;;;;;;;;;;33.61;100.00;151157.97;4998136;28;20365;-79
2022/07/19 10:25:18;;;;;;;;;;;;;;;33.72;100.00;151183.84;4997949;28;19921;-77
2022/07/19 10:28:02;;;;;;;;;;;;;;;34.21;100.00;151306.56;4998165;28;19913;-81
2022/07/19 10:30:27;;;;;;;;;;;;;;;34.45;100.00;151368.63;4993584;28;19921;-78
2022/07/19 10:32:57;;;;;;;;;;;;;;;34.60;100.00;151404.78;4996762;28;19913;-79
2022/07/19 10:35:25;;;;;;;;;;;;;;;34.38;100.00;151350.53;4998586;28;20573;-79
2022/07/19 10:37:51;;;;;;;;;;;;;;;34.30;100.00;151331.13;5015718;28;19960;-80
2022/07/19 10:40:35;;;;;;;;;;;;;;;34.72;100.00;151434.53;4998355;28;19983;-81
2022/07/19 10:43:20;;;;;;;;;;;;;;;34.80;100.00;151455.25;5014860;28;19953;-81
2022/07/19 10:46:04;;;;;;;;;;;;;;;34.34;100.00;151341.50;4994011;28;19913;-78
2022/07/19 10:48:39;;;;;;;;;;;;;;;34.46;100.00;151371.22;5014523;28;19913;-80
2022/07/19 10:51:06;;;;;;;;;;;;;;;34.36;100.00;151345.38;4998472;28;19921;-79
2022/07/19 10:53:40;;;;;;;;;;;;;;;34.93;100.00;151487.53;4997915;28;19914;-80
2022/07/19 10:56:34;;;;;;;;;;;;;;;34.91;100.00;151482.38;5014408;28;19913;-79
2022/07/19 10:59:01;;;;;;;;;;;;;;;34.83;100.00;151464.28;4996059;28;20285;-79
2022/07/19 11:01:28;;;;;;;;;;;;;;;35.32;100.00;151585.88;4997345;28;20416;-78
2022/07/19 11:04:16;;;;;;;;;;;;;;;35.18;100.00;151550.91;4997047;28;19914;-78
2022/07/19 11:06:41;;;;;;;;;;;;;;;34.99;100.00;151504.38;5016346;28;19917;-80
2022/07/19 11:09:08;;;;;;;;;;;;;;;35.23;100.00;151563.81;5015142;28;19941;-81
2022/07/19 11:11:33;;;;;;;;;;;;;;;35.26;98.48;151570.34;4997903;28;20366;-79
2022/07/19 11:14:01;;;;;;;;;;;;;;;35.58;100.00;151653.09;4997322;28;19914;-78
2022/07/19 11:16:27;;;;;;;;;;;;;;;35.45;94.80;151618.19;5015937;28;19917;-79
2022/07/19 11:19:02;;;;;;;;;;;;;;;35.33;90.48;151589.75;5013819;28;20361;-79
2022/07/19 11:21:30;;;;;;;;;;;;;;;35.36;93.58;151597.50;5014926;28;19921;-80
2022/07/19 11:23:55;;;;;;;;;;;;;;;35.79;91.79;151703.56;5013513;28;19913;-79
2022/07/19 11:26:20;;;;;;;;;;;;;;;35.97;88.84;151748.78;5013267;28;19937;-79
2022/07/19 11:28:47;;;;;;;;;;;;;;;36.00;88.78;151757.88;5014075;28;20358;-81
2022/07/19 11:31:16;;;;;;;;;;;;;;;35.56;96.46;151646.59;5014202;28;20011;-80
2022/07/19 11:33:43;;;;;;;;;;;;;;;35.81;92.42;151710.00;5014632;28;20317;-80
2022/07/19 11:36:08;;;;;;;;;;;;;;;35.78;88.34;151700.97;5013693;28;19921;-79
2022/07/19 11:38:44;;;;;;;;;;;;;;;35.61;89.05;151659.53;5013825;28;19913;-81
2022/07/19 11:41:24;;;;;;;;;;;;;;;35.50;93.95;151632.38;5014047;28;19968;-80
2022/07/19 11:43:59;;;;;;;;;;;;;;;35.12;91.25;151535.41;5013679;28;19919;-81
2022/07/19 11:46:34;;;;;;;;;;;;;;;35.07;92.91;151523.78;5014164;28;20334;-79
2022/07/19 11:49:00;;;;;;;;;;;;;;;35.63;93.05;151663.41;5013370;28;19917;-81
2022/07/19 11:51:27;;;;;;;;;;;;;;;35.82;88.83;151711.31;5013682;28;19914;-79
2022/07/19 11:53:55;;;;;;;;;;;;;;;35.72;94.02;151688.00;5014461;28;19920;-80
2022/07/19 11:56:20;;;;;;;;;;;;;;;35.80;94.30;151707.44;5013283;28;20413;-81
2022/07/19 11:58:46;;;;;;;;;;;;;;;35.70;87.79;151682.78;5013198;28;19914;-79
2022/07/19 12:01:11;;;;;;;;;;;;;;;35.44;92.41;151615.56;5012883;28;19913;-80
2022/07/19 12:03:39;;;;;;;;;;;;;;;35.74;94.72;151693.16;5013008;28;19968;-79
2022/07/19 12:06:05;;;;;;;;;;;;;;;36.14;89.99;151792.75;5013040;28;19913;-79
2022/07/19 12:08:34;;;;;;;;;;;;;;;36.25;92.01;151819.91;5013700;28;19963;-80
2022/07/19 12:10:59;;;;;;;;;;;;;;;35.94;90.95;151743.63;5013257;28;19913;-79
2022/07/19 12:13:35;;;;;;;;;;;;;;;35.96;90.00;151747.53;5013622;28;19924;-77
2022/07/19 12:16:07;;;;;;;;;;;;;;;35.88;86.75;151726.84;5013128;28;19913;-79
2022/07/19 12:18:43;;;;;;;;;;;;;;;36.01;80.11;151760.44;4995965;28;19940;-79
2022/07/19 12:21:14;;;;;;;;;;;;;;;36.03;78.77;151764.31;4994915;28;19929;-80
2022/07/19 12:23:41;;;;;;;;;;;;;;;36.16;75.53;151796.63;5014293;28;19996;-78
2022/07/19 12:26:06;;;;;;;;;;;;;;;36.45;78.36;151871.72;4996089;28;19917;-77
2022/07/19 12:28:31;;;;;;;;;;;;;;;36.17;78.77;151799.25;4995667;28;19976;-78